x

Sheboygan, Wi (sgnw3) Weather Station

4:00pm - Mon 25th Sep 2017 All times are CDT. -5 hours from GMT.

  • Wind
    6mph, 6mph gusts
  • Air Temp 70°f
  • Sea Pressure 1013.4mb
  • Sheboygan, Wi
  • Sheboygan, Wi

More Historic Weather Station data

Upgrade to MSW Pro to gain access to the past 30 days of data for over 8000 Wavebouys and Weather Stations around the globe.

Join

Comparision Forecast

View Surf forecast
   
Mon 09/25 4:00pm 6 6 mph 1013.4mb 70f
3:00pm 10 11 mph 1013.7mb 71f
2:00pm 11 11 mph 1014.2mb 71f
1:00pm 11 11 mph 1014.7mb 71f
12:00pm 15 15 mph 1015.1mb 71f
11:00am 13 13 mph 1015.3mb 71f
10:00am 13 14 mph 1015.2mb 70f
9:00am 9 10 mph 1015.5mb 71f
8:00am 5 5 mph 1015.5mb 69f
7:00am 5 5 mph 1015.5mb 68f
6:00am 3 3 mph 1015.3mb 68f
5:00am 5 5 mph 1015mb 69f
4:00am 5 6 mph 1015.1mb 70f
3:00am 5 6 mph 1015.2mb 71f
2:00am 7 7 mph 1015.2mb 71f
1:00am 10 10 mph 1015.2mb 73f
12:00am 8 8 mph 1015.4mb 71f
Sun 09/24 11:00pm 7 8 mph 1015.5mb 72f
10:00pm 10 11 mph 1015.7mb 74f
9:00pm 10 10 mph 1015.8mb 74f
8:00pm 9 9 mph 1015.9mb 73f
7:00pm 13 13 mph 1015.7mb 73f
6:00pm 13 14 mph 1015.7mb 74f
5:00pm 8 9 mph 1015.9mb 72f
4:00pm 8 8 mph 1016.1mb 71f
3:00pm 13 13 mph 1016.5mb 71f
2:00pm 11 11 mph 1017mb 71f
1:00pm 14 14 mph 1017.5mb 71f
12:00pm 15 16 mph 1017.9mb 71f
11:00am 15 15 mph 1018.2mb 71f
10:00am 13 14 mph 1018.3mb 71f
9:00am 11 13 mph 1018.4mb 71f
8:00am 7 7 mph 1018.3mb 70f
7:00am 7 7 mph 1018.4mb 69f
6:00am 6 6 mph 1018mb 69f
5:00am 1 1 mph 1017.9mb 70f
4:00am 5 5 mph 1017.9mb 71f
3:00am 7 7 mph 1018mb 72f
2:00am 6 7 mph 1018.1mb 71f
1:00am 7 8 mph 1017.9mb 68f
12:00am 6 6 mph 1017.7mb 69f
Sat 09/23 11:00pm 1 2 mph 1017.5mb 70f
10:00pm 5 6 mph 1017.2mb 74f
9:00pm 7 7 mph 1017mb 74f
8:00pm 6 7 mph 1017.1mb 74f
7:00pm 8 9 mph 1016.9mb 74f
6:00pm 15 15 mph 1016.8mb 76f
5:00pm 17 18 mph 1016.8mb 75f
4:00pm 21 21 mph 1016.8mb 76f
3:00pm 15 15 mph 1017.3mb 72f
2:00pm 17 17 mph 1017.7mb 72f
1:00pm 17 18 mph 1018.3mb 72f
12:00pm 18 20 mph 1018.5mb 72f
11:00am 18 20 mph 1018.6mb 73f
10:00am 18 18 mph 1018.3mb 72f
9:00am 11 13 mph 1018mb 72f
8:00am 10 10 mph 1017.7mb 70f
7:00am 6 6 mph 1017.6mb 69f
6:00am 10 10 mph 1017mb 69f
5:00am 3 3 mph 1016.4mb 72f
4:00am 8 9 mph 1015.8mb 75f
3:00am 8 10 mph 1015.6mb 72f
2:00am 7 8 mph 1015.6mb 72f
1:00am 8 8 mph 1015.8mb 72f
12:00am 7 8 mph 1016mb 74f
Fri 09/22 11:00pm 9 10 mph 1016mb 73f
10:00pm 6 7 mph 1016.1mb 71f
9:00pm 2 3 mph 1016.1mb 70f
8:00pm 11 13 mph 1015.8mb 74f
7:00pm 11 13 mph 1015.8mb 73f
6:00pm 18 20 mph 1015.3mb 74f
5:00pm 17 17 mph 1015.7mb 75f
4:00pm 17 17 mph 1015.9mb 72f
3:00pm 18 20 mph 1015.7mb 72f
2:00pm 18 20 mph 1016.1mb 72f
1:00pm 20 21 mph 1016.5mb 72f
12:00pm 17 18 mph 1016.6mb 70f
11:00am 16 17 mph 1016.8mb 70f
10:00am 6 7 mph 1017mb 74f
9:00am 9 10 mph 1016.6mb 72f
8:00am 11 11 mph 1016.6mb 69f
7:00am 5 5 mph 1016.9mb 69f
6:00am 10 10 mph 1016.6mb 69f
5:00am 9 9 mph 1016.4mb 69f
4:00am 6 7 mph 1016.1mb 70f
3:00am 5 5 mph 1015.9mb 69f
2:00am 7 8 mph 1015.9mb 69f
1:00am 6 6 mph 1016mb 68f
12:00am 5 6 mph 1016mb 68f
Thu 09/21 11:00pm 3 3 mph 1016.1mb 70f